createdAt,value
2017-11-30T00:00:44.340Z,86.28
2017-11-30T00:03:12.270Z,86.08
2017-11-30T00:05:40.190Z,86.31
2017-11-30T00:08:08.080Z,86.86
2017-11-30T00:10:36.058Z,86.89
2017-11-30T00:13:03.966Z,87.25
2017-11-30T00:15:31.871Z,87.16
2017-11-30T00:17:59.799Z,87.04
2017-11-30T00:20:28.079Z,87.10
2017-11-30T00:22:55.981Z,87.10
2017-11-30T00:25:23.928Z,87.08
2017-11-30T00:27:51.830Z,87.56
2017-11-30T00:30:19.764Z,87.68
2017-11-30T00:32:47.749Z,88.60
2017-11-30T00:35:15.684Z,89.14
2017-11-30T00:37:44.005Z,89.67
2017-11-30T00:40:11.927Z,89.82
2017-11-30T00:42:51.556Z,89.97
2017-11-30T00:45:19.887Z,90.00
2017-11-30T00:47:47.790Z,89.83
2017-11-30T00:50:15.686Z,89.80
2017-11-30T00:52:43.598Z,90.53
2017-11-30T00:55:11.490Z,90.55
2017-11-30T00:57:39.395Z,91.27
2017-11-30T01:00:07.378Z,91.14
2017-11-30T01:02:35.270Z,90.83
2017-11-30T01:05:03.174Z,91.04
2017-11-30T01:07:31.522Z,91.29
2017-11-30T01:09:59.428Z,91.45
2017-11-30T01:12:27.768Z,91.09
2017-11-30T01:14:55.687Z,91.36
2017-11-30T01:17:23.623Z,91.46
2017-11-30T01:19:51.531Z,91.47
2017-11-30T01:22:19.557Z,91.38
2017-11-30T01:24:47.454Z,90.62
2017-11-30T01:27:15.790Z,90.02
2017-11-30T01:29:43.765Z,89.93
2017-11-30T01:32:11.664Z,90.23
2017-11-30T01:34:39.957Z,90.33
2017-11-30T01:37:07.875Z,90.92
2017-11-30T01:39:35.781Z,90.80
2017-11-30T01:42:04.088Z,90.60
2017-11-30T01:44:32.017Z,91.21
2017-11-30T01:47:00.312Z,91.41
2017-11-30T01:49:28.246Z,91.87
2017-11-30T01:51:56.160Z,92.07
2017-11-30T01:54:24.057Z,92.37
2017-11-30T01:56:51.951Z,92.71
2017-11-30T01:59:19.868Z,92.26
2017-11-30T02:01:47.756Z,92.67
2017-11-30T02:04:15.645Z,92.74
2017-11-30T02:06:43.573Z,93.08
2017-11-30T02:09:11.470Z,93.39
2017-11-30T02:11:39.369Z,93.54
2017-11-30T02:14:07.679Z,93.28
2017-11-30T02:16:35.569Z,93.26
2017-11-30T02:19:03.557Z,93.02
2017-11-30T02:21:31.465Z,93.25
2017-11-30T02:23:59.362Z,93.06
2017-11-30T02:26:27.359Z,92.52
2017-11-30T02:28:55.273Z,92.09
2017-11-30T02:31:23.211Z,91.80
2017-11-30T02:33:51.126Z,91.88
2017-11-30T02:36:19.040Z,92.17
2017-11-30T02:38:46.946Z,92.04
2017-11-30T02:41:14.876Z,92.52
2017-11-30T02:43:42.765Z,92.29
2017-11-30T02:46:11.063Z,91.86
2017-11-30T02:48:38.968Z,91.38
2017-11-30T02:51:06.867Z,91.22
2017-11-30T02:53:35.193Z,90.86
2017-11-30T02:56:03.085Z,90.55
2017-11-30T02:58:31.001Z,90.12
2017-11-30T03:00:59.300Z,89.85
2017-11-30T03:03:27.221Z,89.84
2017-11-30T03:05:55.139Z,89.57
2017-11-30T03:08:23.036Z,89.64
2017-11-30T03:10:50.945Z,89.71
2017-11-30T03:13:19.252Z,89.74
2017-11-30T03:15:47.250Z,89.43
2017-11-30T03:18:15.169Z,89.67
2017-11-30T03:20:43.077Z,89.31
2017-11-30T03:23:11.014Z,89.61
2017-11-30T03:25:38.934Z,89.90
2017-11-30T03:28:06.838Z,90.04
2017-11-30T03:30:34.746Z,90.30
2017-11-30T03:33:02.649Z,90.35
2017-11-30T03:35:30.564Z,90.71
2017-11-30T03:37:58.456Z,90.42
2017-11-30T03:40:26.354Z,90.30
2017-11-30T03:42:54.325Z,90.31
2017-11-30T03:45:22.632Z,89.88
2017-11-30T03:47:50.534Z,89.72
2017-11-30T03:50:18.429Z,89.22
2017-11-30T03:52:46.733Z,88.80
2017-11-30T03:55:14.672Z,88.50
2017-11-30T03:57:42.625Z,88.28
2017-11-30T04:00:10.545Z,88.60
2017-11-30T04:02:38.450Z,88.62
2017-11-30T04:05:06.373Z,88.87
2017-11-30T04:07:34.316Z,88.69
2017-11-30T04:10:02.242Z,88.72
2017-11-30T04:12:30.196Z,88.63
2017-11-30T04:14:58.097Z,89.27
2017-11-30T04:17:26.017Z,88.91
2017-11-30T04:19:53.921Z,88.79
2017-11-30T04:22:21.833Z,88.37
2017-11-30T04:24:50.133Z,88.79
2017-11-30T04:27:18.045Z,88.94
2017-11-30T04:29:45.950Z,88.85
2017-11-30T04:32:14.252Z,88.88
2017-11-30T04:34:42.146Z,88.56
2017-11-30T04:37:10.062Z,88.49
2017-11-30T04:39:38.352Z,88.34
2017-11-30T04:42:06.262Z,88.35
2017-11-30T04:44:34.163Z,88.41
2017-11-30T04:47:02.132Z,88.36
2017-11-30T04:49:30.045Z,88.32
2017-11-30T04:51:57.949Z,88.28
2017-11-30T04:54:25.865Z,88.06
2017-11-30T04:56:53.761Z,87.71
2017-11-30T04:59:21.653Z,88.15
2017-11-30T05:01:49.574Z,88.42
2017-11-30T05:04:17.465Z,88.62
2017-11-30T05:06:45.370Z,88.89
2017-11-30T05:09:13.281Z,89.12
2017-11-30T05:11:41.224Z,89.55
2017-11-30T05:14:09.130Z,89.22
2017-11-30T05:16:37.038Z,89.03
2017-11-30T05:19:04.993Z,89.28
2017-11-30T05:21:32.916Z,89.33
2017-11-30T05:24:00.824Z,89.29
2017-11-30T05:26:28.728Z,89.15
2017-11-30T05:28:56.633Z,89.50
2017-11-30T05:31:24.551Z,89.52
2017-11-30T05:33:52.841Z,89.42
2017-11-30T05:36:21.145Z,89.73
2017-11-30T05:38:49.057Z,89.20
2017-11-30T05:41:16.974Z,88.89
2017-11-30T05:43:44.890Z,88.55
2017-11-30T05:46:12.810Z,88.43
2017-11-30T05:48:40.714Z,88.23
2017-11-30T05:51:08.647Z,88.39
2017-11-30T05:53:36.563Z,88.31
2017-11-30T05:56:04.484Z,88.00
2017-11-30T05:58:32.386Z,87.95
2017-11-30T06:01:00.354Z,87.77
2017-11-30T06:03:28.250Z,87.58
2017-11-30T06:05:56.153Z,87.42
2017-11-30T06:08:24.045Z,87.38
2017-11-30T06:10:51.945Z,87.26
2017-11-30T06:13:19.841Z,87.08
2017-11-30T06:15:48.133Z,87.15
2017-11-30T06:18:16.038Z,87.30
2017-11-30T06:20:44.022Z,87.40
2017-11-30T06:23:11.923Z,87.78
2017-11-30T06:25:40.257Z,87.57
2017-11-30T06:28:08.181Z,87.91
2017-11-30T06:30:36.099Z,87.69
2017-11-30T06:33:03.998Z,87.50
2017-11-30T06:35:32.300Z,87.88
2017-11-30T06:38:00.204Z,87.58
2017-11-30T06:40:28.136Z,87.33
2017-11-30T06:43:03.889Z,87.06
2017-11-30T06:45:31.809Z,86.85
2017-11-30T06:47:59.716Z,87.41
2017-11-30T06:50:27.621Z,87.48
2017-11-30T06:52:55.520Z,87.43
2017-11-30T06:55:23.830Z,87.09
2017-11-30T06:57:51.749Z,87.40
2017-11-30T07:00:19.678Z,87.32
2017-11-30T07:02:47.598Z,87.48
2017-11-30T07:05:15.534Z,87.21
2017-11-30T07:07:43.463Z,87.05
2017-11-30T07:10:11.378Z,87.19
2017-11-30T07:12:39.297Z,86.92
2017-11-30T07:15:07.212Z,87.19
2017-11-30T07:17:35.135Z,87.09
2017-11-30T07:20:03.037Z,87.55
2017-11-30T07:22:30.940Z,87.50
2017-11-30T07:24:58.845Z,87.03
2017-11-30T07:27:26.776Z,86.77
2017-11-30T07:29:54.676Z,86.51
2017-11-30T07:32:22.593Z,86.85
2017-11-30T07:34:51.135Z,86.53
2017-11-30T07:37:19.043Z,86.67
2017-11-30T07:39:46.948Z,86.84
2017-11-30T07:42:15.264Z,86.81
2017-11-30T07:44:43.170Z,86.51
2017-11-30T07:47:11.106Z,86.27
2017-11-30T07:49:39.051Z,86.12
2017-11-30T07:52:06.959Z,85.83
2017-11-30T07:54:34.919Z,86.20
2017-11-30T07:57:02.821Z,85.79
2017-11-30T07:59:31.117Z,85.57
2017-11-30T08:01:59.018Z,85.34
2017-11-30T08:04:26.928Z,84.82
2017-11-30T08:06:55.259Z,84.45
2017-11-30T08:09:23.205Z,84.19
2017-11-30T08:11:51.113Z,83.76
2017-11-30T08:14:19.004Z,82.67
2017-11-30T08:16:46.901Z,82.38
2017-11-30T08:19:14.797Z,80.51
2017-11-30T08:21:42.724Z,75.58
2017-11-30T08:24:11.041Z,69.83
2017-11-30T08:26:38.957Z,66.62
2017-11-30T08:29:06.858Z,64.01
2017-11-30T08:31:34.780Z,61.26
2017-11-30T08:34:02.874Z,58.56
2017-11-30T08:36:31.190Z,57.96
2017-11-30T08:38:59.093Z,58.05
2017-11-30T08:41:27.000Z,57.42
2017-11-30T08:43:54.942Z,54.56
2017-11-30T08:46:22.869Z,54.11
2017-11-30T08:48:50.780Z,53.32
2017-11-30T08:51:19.110Z,51.78
2017-11-30T08:53:47.018Z,52.38
2017-11-30T08:56:14.943Z,51.69
2017-11-30T08:58:42.853Z,51.47
2017-11-30T09:01:10.820Z,50.16
2017-11-30T09:03:39.086Z,50.06
2017-11-30T09:06:07.450Z,48.57
2017-11-30T09:08:35.369Z,48.76
2017-11-30T09:11:03.698Z,48.63
2017-11-30T09:13:31.609Z,49.03
2017-11-30T09:15:59.934Z,49.01
2017-11-30T09:18:27.841Z,48.95
2017-11-30T09:20:55.756Z,48.42
2017-11-30T09:23:23.665Z,47.24
2017-11-30T09:25:51.608Z,45.35
2017-11-30T09:28:19.517Z,45.01
2017-11-30T09:30:47.429Z,43.42
2017-11-30T09:33:15.330Z,44.44
2017-11-30T09:35:43.251Z,45.93
2017-11-30T09:38:11.998Z,45.76
2017-11-30T09:40:39.928Z,47.74
2017-11-30T09:43:07.933Z,47.29
2017-11-30T09:45:35.855Z,49.79
2017-11-30T09:48:03.765Z,49.98
2017-11-30T09:50:31.791Z,50.45
2017-11-30T09:52:59.765Z,49.30
2017-11-30T09:55:27.689Z,48.33
2017-11-30T09:57:55.592Z,48.38
2017-11-30T10:00:23.565Z,48.17
2017-11-30T10:02:51.500Z,48.83
2017-11-30T10:05:19.805Z,47.95
2017-11-30T10:07:47.719Z,46.28
2017-11-30T10:10:15.645Z,46.86
2017-11-30T10:12:43.547Z,46.66
2017-11-30T10:15:11.476Z,46.93
2017-11-30T10:17:39.376Z,48.89
2017-11-30T10:20:07.290Z,49.99
2017-11-30T10:22:35.596Z,50.97
2017-11-30T10:25:03.524Z,50.84
2017-11-30T10:27:31.832Z,51.94
2017-11-30T10:30:00.218Z,51.79
2017-11-30T10:32:28.392Z,52.68
2017-11-30T10:34:56.313Z,51.37
2017-11-30T10:37:24.232Z,50.82
2017-11-30T10:39:52.162Z,50.71
2017-11-30T10:42:20.100Z,50.38
2017-11-30T10:44:48.023Z,52.00
2017-11-30T10:47:15.934Z,49.84
2017-11-30T10:49:43.850Z,51.87
2017-11-30T10:52:11.768Z,52.24
2017-11-30T10:54:39.705Z,54.34
2017-11-30T10:57:07.676Z,54.90
2017-11-30T10:59:35.573Z,55.40
2017-11-30T11:02:03.500Z,54.88
2017-11-30T11:04:31.437Z,54.01
2017-11-30T11:06:59.354Z,54.60
2017-11-30T11:09:27.263Z,55.19
2017-11-30T11:11:55.173Z,56.21
2017-11-30T11:14:23.085Z,58.30
2017-11-30T11:16:51.014Z,58.96
2017-11-30T11:19:18.935Z,59.96
2017-11-30T11:21:46.840Z,60.03
2017-11-30T11:24:14.737Z,60.07
2017-11-30T11:26:42.659Z,60.24
2017-11-30T11:29:10.970Z,59.69
2017-11-30T11:31:38.873Z,60.70
2017-11-30T11:34:06.773Z,60.71
2017-11-30T11:36:35.073Z,61.86
2017-11-30T11:39:02.972Z,62.18
2017-11-30T11:41:30.874Z,62.37
2017-11-30T11:43:58.778Z,62.67
2017-11-30T11:46:26.683Z,63.02
2017-11-30T11:48:54.603Z,62.33
2017-11-30T11:51:23.268Z,62.35
2017-11-30T11:53:51.562Z,62.07
2017-11-30T11:56:19.485Z,61.80
2017-11-30T11:58:47.419Z,62.25
2017-11-30T12:01:15.326Z,62.21
2017-11-30T12:03:43.288Z,62.02
2017-11-30T12:06:11.225Z,62.83
2017-11-30T12:08:39.114Z,61.88
2017-11-30T12:11:07.046Z,61.79
2017-11-30T12:13:34.948Z,62.34
2017-11-30T12:16:02.953Z,63.58
2017-11-30T12:18:30.850Z,64.68
2017-11-30T12:20:58.752Z,65.60
2017-11-30T12:23:26.657Z,65.80
2017-11-30T12:25:54.564Z,65.16
2017-11-30T12:28:22.486Z,65.12
2017-11-30T12:30:50.805Z,65.12
2017-11-30T12:33:18.702Z,65.27
2017-11-30T12:35:46.647Z,64.74
2017-11-30T12:38:14.537Z,66.59
2017-11-30T12:40:42.449Z,67.16
2017-11-30T12:43:10.748Z,67.25
2017-11-30T12:45:38.654Z,67.61
2017-11-30T12:48:06.565Z,68.48
2017-11-30T12:50:34.898Z,69.48
2017-11-30T12:53:02.776Z,69.35
2017-11-30T12:55:30.701Z,69.68
2017-11-30T12:57:58.599Z,69.82
2017-11-30T13:00:26.497Z,70.52
2017-11-30T13:02:54.391Z,70.43
2017-11-30T13:05:22.292Z,70.73
2017-11-30T13:07:50.187Z,71.15
2017-11-30T13:10:18.104Z,71.05
2017-11-30T13:12:46.019Z,71.83
2017-11-30T13:15:13.930Z,71.81
2017-11-30T13:17:41.811Z,72.00
2017-11-30T13:20:09.705Z,72.01
2017-11-30T13:22:37.633Z,72.52
2017-11-30T13:25:05.567Z,72.30
2017-11-30T13:27:33.488Z,71.83
2017-11-30T13:30:01.386Z,72.16
2017-11-30T13:32:29.344Z,71.74
2017-11-30T13:34:57.241Z,72.61
2017-11-30T13:37:25.152Z,72.89
2017-11-30T13:39:53.044Z,73.28
2017-11-30T13:42:20.951Z,74.25
2017-11-30T13:44:49.252Z,74.53
2017-11-30T13:47:17.167Z,75.01
2017-11-30T13:49:45.068Z,75.14
2017-11-30T13:52:13.392Z,75.72
2017-11-30T13:54:41.311Z,76.25
2017-11-30T13:57:09.657Z,76.11
2017-11-30T13:59:37.579Z,76.22
2017-11-30T14:02:05.493Z,76.89
2017-11-30T14:04:33.425Z,77.26
2017-11-30T14:07:01.333Z,77.35
2017-11-30T14:09:29.228Z,77.50
2017-11-30T14:11:57.528Z,77.93
2017-11-30T14:14:25.428Z,78.16
2017-11-30T14:16:53.348Z,78.35
2017-11-30T14:19:21.639Z,78.49
2017-11-30T14:21:49.543Z,78.34
2017-11-30T14:24:17.452Z,78.22
2017-11-30T14:26:45.764Z,78.42
2017-11-30T14:29:13.661Z,78.34
2017-11-30T14:31:41.569Z,78.38
2017-11-30T14:34:09.934Z,78.40
2017-11-30T14:36:37.843Z,78.82
2017-11-30T14:39:05.738Z,79.39
2017-11-30T14:41:33.742Z,79.58
2017-11-30T14:44:01.652Z,79.66
2017-11-30T14:46:29.580Z,78.84
2017-11-30T14:48:57.512Z,79.28
2017-11-30T14:51:25.423Z,79.57
2017-11-30T14:53:53.763Z,80.26
2017-11-30T14:56:21.731Z,80.34
2017-11-30T14:58:49.667Z,80.58
2017-11-30T15:01:17.609Z,81.32
2017-11-30T15:03:45.891Z,81.46
2017-11-30T15:06:14.185Z,81.61
2017-11-30T15:08:42.159Z,81.94
2017-11-30T15:11:10.062Z,81.82
2017-11-30T15:13:38.002Z,81.69
2017-11-30T15:16:05.920Z,81.33
2017-11-30T15:18:33.880Z,81.79
2017-11-30T15:21:02.683Z,81.69
2017-11-30T15:23:30.579Z,81.63
2017-11-30T15:25:58.481Z,81.34
2017-11-30T15:28:26.376Z,81.52
2017-11-30T15:30:54.306Z,81.06
2017-11-30T15:33:22.213Z,81.16
2017-11-30T15:35:50.267Z,81.40
2017-11-30T15:38:18.198Z,81.71
2017-11-30T15:40:46.112Z,80.58
2017-11-30T15:43:14.010Z,80.49
2017-11-30T15:45:42.303Z,80.92
2017-11-30T15:48:10.223Z,80.34
2017-11-30T15:50:38.152Z,80.06
2017-11-30T15:53:06.051Z,80.26
2017-11-30T15:55:33.973Z,80.03
2017-11-30T15:58:01.868Z,80.00
2017-11-30T16:00:29.817Z,79.89
2017-11-30T16:02:57.727Z,79.47
2017-11-30T16:05:25.637Z,79.60
2017-11-30T16:07:53.948Z,79.35
2017-11-30T16:10:21.845Z,79.29
2017-11-30T16:12:49.742Z,79.83
2017-11-30T16:15:18.247Z,79.51
2017-11-30T16:17:46.153Z,80.01
2017-11-30T16:20:14.075Z,79.89
2017-11-30T16:22:41.972Z,79.84
2017-11-30T16:25:09.867Z,79.59
2017-11-30T16:27:37.836Z,79.27
2017-11-30T16:30:05.756Z,79.10
2017-11-30T16:32:33.643Z,78.92
2017-11-30T16:35:01.530Z,78.99
2017-11-30T16:37:29.445Z,78.57
2017-11-30T16:39:57.346Z,78.71
2017-11-30T16:42:25.370Z,78.72
2017-11-30T16:44:53.281Z,79.07
2017-11-30T16:47:21.180Z,78.91
2017-11-30T16:49:49.141Z,78.79
2017-11-30T16:52:17.011Z,79.12
2017-11-30T16:54:44.927Z,79.74
2017-11-30T16:57:12.839Z,79.47
2017-11-30T16:59:40.735Z,79.62
2017-11-30T17:02:08.628Z,79.13
2017-11-30T17:04:36.719Z,79.23
2017-11-30T17:07:04.625Z,78.91
2017-11-30T17:09:32.524Z,79.00
2017-11-30T17:12:00.827Z,78.61
2017-11-30T17:14:28.735Z,77.91
2017-11-30T17:19:30.833Z,77.17
2017-11-30T17:21:58.839Z,77.13
2017-11-30T17:24:26.736Z,77.40
2017-11-30T17:26:54.644Z,77.01
2017-11-30T17:29:22.956Z,77.41
2017-11-30T17:31:50.873Z,77.47
2017-11-30T17:34:18.791Z,77.52
2017-11-30T17:36:46.688Z,78.03
2017-11-30T17:39:14.588Z,77.75
2017-11-30T17:41:42.952Z,77.41
2017-11-30T17:44:10.840Z,77.07
2017-11-30T17:46:39.144Z,77.43
2017-11-30T17:49:07.048Z,77.60
2017-11-30T17:51:34.953Z,78.24
2017-11-30T17:54:03.253Z,78.60
2017-11-30T17:56:31.175Z,79.00
2017-11-30T17:58:59.135Z,78.69
2017-11-30T18:01:27.049Z,78.30
2017-11-30T18:03:54.944Z,78.01
2017-11-30T18:06:22.863Z,78.33
2017-11-30T18:08:51.162Z,77.90
2017-11-30T18:11:19.066Z,78.12
2017-11-30T18:13:46.959Z,78.34
2017-11-30T18:16:15.840Z,78.07
2017-11-30T18:18:43.743Z,77.40
2017-11-30T18:21:12.036Z,78.53
2017-11-30T18:23:39.945Z,78.85
2017-11-30T18:26:07.973Z,78.65
2017-11-30T18:28:35.883Z,78.52
2017-11-30T18:31:03.784Z,78.14
2017-11-30T18:33:32.080Z,78.45
2017-11-30T18:36:00.001Z,77.93
2017-11-30T18:38:27.910Z,77.69
2017-11-30T18:40:55.816Z,77.61
2017-11-30T18:43:23.748Z,77.67
2017-11-30T18:45:52.075Z,77.46
2017-11-30T18:48:20.047Z,77.86
2017-11-30T18:50:47.986Z,77.68
2017-11-30T18:53:15.875Z,77.69
2017-11-30T18:55:43.769Z,77.12
2017-11-30T18:58:11.664Z,77.12
2017-11-30T19:00:39.967Z,77.87
2017-11-30T19:03:07.874Z,78.23
2017-11-30T19:05:35.811Z,78.76
2017-11-30T19:08:03.715Z,79.20
2017-11-30T19:10:31.620Z,79.22
2017-11-30T19:12:59.523Z,79.68
2017-11-30T19:15:27.423Z,80.32
2017-11-30T19:17:55.350Z,80.02
2017-11-30T19:20:23.275Z,80.50
2017-11-30T19:22:51.559Z,80.27
2017-11-30T19:25:19.876Z,80.02
2017-11-30T19:27:47.775Z,79.86
2017-11-30T19:30:15.734Z,79.97
2017-11-30T19:32:43.644Z,80.31
2017-11-30T19:35:11.956Z,80.50
2017-11-30T19:37:39.869Z,79.92
2017-11-30T19:40:07.768Z,80.17
2017-11-30T19:42:38.056Z,80.59
2017-11-30T19:45:06.025Z,81.20
2017-11-30T19:47:34.003Z,80.81
2017-11-30T19:50:02.362Z,80.64
2017-11-30T19:52:30.262Z,80.18
2017-11-30T19:54:58.167Z,80.19
2017-11-30T19:57:26.234Z,80.51
2017-11-30T19:59:54.162Z,80.54
2017-11-30T20:02:22.461Z,81.31
2017-11-30T20:04:50.372Z,80.93
2017-11-30T20:07:18.276Z,80.63
2017-11-30T20:09:50.965Z,80.64
2017-11-30T20:12:18.883Z,80.83
2017-11-30T20:14:46.837Z,81.20
2017-11-30T20:17:14.843Z,81.21
2017-11-30T20:19:42.768Z,81.31
2017-11-30T20:22:10.705Z,81.63
2017-11-30T20:24:39.206Z,81.93
2017-11-30T20:27:07.509Z,81.43
2017-11-30T20:29:35.756Z,81.47
2017-11-30T20:32:03.713Z,81.32
2017-11-30T20:34:31.619Z,81.29
2017-11-30T20:36:59.609Z,81.56
2017-11-30T20:39:27.513Z,81.60
2017-11-30T20:41:55.829Z,81.76
2017-11-30T20:44:23.740Z,82.13
2017-11-30T20:46:52.055Z,82.24
2017-11-30T20:49:19.943Z,82.78
2017-11-30T20:51:47.874Z,82.78
2017-11-30T20:54:15.827Z,82.52
2017-11-30T20:56:44.141Z,82.85
2017-11-30T20:59:12.050Z,82.72
2017-11-30T21:01:39.987Z,83.26
2017-11-30T21:04:07.995Z,83.72
2017-11-30T21:06:35.915Z,84.04
2017-11-30T21:09:03.835Z,84.42
2017-11-30T21:11:32.537Z,84.74
2017-11-30T21:14:00.475Z,84.82
2017-11-30T21:16:28.410Z,85.24
2017-11-30T21:18:56.325Z,84.78
2017-11-30T21:21:24.635Z,84.66
2017-11-30T21:23:52.542Z,84.44
2017-11-30T21:26:20.579Z,84.50
2017-11-30T21:28:48.497Z,84.79
2017-11-30T21:31:16.410Z,84.77
2017-11-30T21:33:44.302Z,84.83
2017-11-30T21:36:12.216Z,84.48
2017-11-30T21:38:40.124Z,84.61
2017-11-30T21:41:08.497Z,84.68
2017-11-30T21:43:37.363Z,84.53
2017-11-30T21:46:05.755Z,84.44
2017-11-30T21:48:33.867Z,84.16
2017-11-30T21:51:01.784Z,83.73
2017-11-30T21:53:30.074Z,83.77
2017-11-30T21:55:57.998Z,83.33
2017-11-30T21:58:25.921Z,82.91
2017-11-30T22:00:53.848Z,82.70
2017-11-30T22:03:21.748Z,82.48
2017-11-30T22:05:49.664Z,81.97
2017-11-30T22:08:17.640Z,81.68
2017-11-30T22:10:45.540Z,81.26
2017-11-30T22:13:13.633Z,80.83
2017-11-30T22:15:41.562Z,80.73
2017-11-30T22:18:09.489Z,80.14
2017-11-30T22:20:37.654Z,79.98
2017-11-30T22:23:05.795Z,79.51
2017-11-30T22:25:34.108Z,78.75
2017-11-30T22:28:02.017Z,79.12
2017-11-30T22:30:29.931Z,78.80
2017-11-30T22:32:57.947Z,78.71
2017-11-30T22:35:25.887Z,78.89
2017-11-30T22:37:53.763Z,79.00
2017-11-30T22:40:21.693Z,78.99
2017-11-30T22:42:49.647Z,79.01
2017-11-30T22:45:18.009Z,78.75
2017-11-30T22:47:45.899Z,78.45
2017-11-30T22:50:14.376Z,78.17
2017-11-30T22:52:42.304Z,78.40
2017-11-30T22:55:10.215Z,78.34
2017-11-30T22:57:38.155Z,78.44
2017-11-30T23:00:06.079Z,78.42
2017-11-30T23:02:34.093Z,78.56
2017-11-30T23:05:02.036Z,78.95
2017-11-30T23:07:29.931Z,78.47
2017-11-30T23:09:57.849Z,78.57
2017-11-30T23:12:25.843Z,78.75
2017-11-30T23:14:53.744Z,78.93
2017-11-30T23:17:21.648Z,78.94
2017-11-30T23:19:49.570Z,78.60
2017-11-30T23:22:17.532Z,79.35
2017-11-30T23:24:45.427Z,79.32
2017-11-30T23:27:13.734Z,78.89
2017-11-30T23:29:41.638Z,78.99
2017-11-30T23:32:09.543Z,78.83
2017-11-30T23:34:37.850Z,78.87
2017-11-30T23:37:05.756Z,79.05
2017-11-30T23:39:33.650Z,79.05
2017-11-30T23:42:02.043Z,79.34
2017-11-30T23:44:29.965Z,79.49
2017-11-30T23:46:58.054Z,79.04
2017-11-30T23:49:25.959Z,79.36
2017-11-30T23:51:53.980Z,79.42
2017-11-30T23:54:21.887Z,79.63
2017-11-30T23:56:49.830Z,79.31
2017-11-30T23:59:17.736Z,79.16
